createdAt,value
2019-05-05T00:02:21.249Z,4.08
2019-05-05T00:04:42.476Z,4.08
2019-05-05T00:06:46.227Z,4.06
2019-05-05T00:08:50.051Z,4.04
2019-05-05T00:11:09.578Z,4.03
2019-05-05T00:13:20.954Z,4.00
2019-05-05T00:15:47.849Z,3.97
2019-05-05T00:17:51.573Z,3.94
2019-05-05T00:19:55.331Z,3.95
2019-05-05T00:21:59.138Z,3.94
2019-05-05T00:24:04.633Z,3.96
2019-05-05T00:26:08.621Z,3.94
2019-05-05T00:28:14.336Z,3.88
2019-05-05T00:30:18.080Z,3.83
2019-05-05T00:32:21.930Z,3.86
2019-05-05T00:34:25.764Z,3.87
2019-05-05T00:36:30.560Z,3.87
2019-05-05T00:38:35.203Z,3.86
2019-05-05T00:40:39.139Z,3.86
2019-05-05T00:42:42.903Z,3.86
2019-05-05T00:44:46.777Z,3.86
2019-05-05T00:47:08.154Z,3.80
2019-05-05T00:49:11.922Z,3.73
2019-05-05T00:51:15.931Z,3.64
2019-05-05T00:53:19.742Z,3.54
2019-05-05T00:55:24.437Z,3.45
2019-05-05T00:57:28.215Z,3.42
2019-05-05T00:59:32.005Z,3.43
2019-05-05T01:01:55.716Z,3.47
2019-05-05T01:04:00.029Z,3.50
2019-05-05T01:06:14.982Z,3.51
2019-05-05T01:08:22.052Z,3.50
2019-05-05T01:10:25.778Z,3.47
2019-05-05T01:12:30.656Z,3.46
2019-05-05T01:14:35.447Z,3.47
2019-05-05T01:16:39.315Z,3.47
2019-05-05T01:18:45.072Z,3.47
2019-05-05T01:20:48.764Z,3.47
2019-05-05T01:22:55.328Z,3.48
2019-05-05T01:24:59.320Z,3.47
2019-05-05T01:27:04.225Z,3.46
2019-05-05T01:29:12.112Z,3.41
2019-05-05T01:31:18.140Z,3.38
2019-05-05T01:33:31.910Z,3.32
2019-05-05T01:35:35.790Z,3.26
2019-05-05T01:37:44.956Z,3.21
2019-05-05T01:40:04.943Z,3.17
2019-05-05T01:42:14.294Z,3.17
2019-05-05T01:44:18.159Z,3.20
2019-05-05T01:46:21.963Z,3.22
2019-05-05T01:48:25.904Z,3.24
2019-05-05T01:50:31.733Z,3.23
2019-05-05T01:52:35.503Z,3.20
2019-05-05T01:54:39.315Z,3.15
2019-05-05T01:56:44.515Z,3.09
2019-05-05T01:58:49.014Z,3.03
2019-05-05T02:00:54.560Z,3.00
2019-05-05T02:02:58.567Z,2.99
2019-05-05T02:05:04.460Z,2.98
2019-05-05T02:07:09.041Z,2.98
2019-05-05T02:09:15.944Z,2.99
2019-05-05T02:11:19.871Z,2.97
2019-05-05T02:13:25.170Z,2.94
2019-05-05T02:15:29.172Z,2.90
2019-05-05T02:17:35.161Z,2.87
2019-05-05T02:19:38.643Z,2.84
2019-05-05T02:21:42.565Z,2.84
2019-05-05T02:23:47.437Z,2.83
2019-05-05T02:25:51.353Z,2.84
2019-05-05T02:27:55.127Z,2.83
2019-05-05T02:30:07.970Z,2.82
2019-05-05T02:32:20.237Z,2.82
2019-05-05T02:34:25.666Z,2.82
2019-05-05T02:36:30.751Z,2.82
2019-05-05T02:38:35.508Z,2.82
2019-05-05T02:40:39.923Z,2.84
2019-05-05T02:42:46.021Z,2.85
2019-05-05T02:44:49.949Z,2.85
2019-05-05T02:47:04.847Z,2.85
2019-05-05T02:49:09.512Z,2.85
2019-05-05T02:51:15.088Z,2.85
2019-05-05T02:53:20.084Z,2.85
2019-05-05T02:55:26.177Z,2.85
2019-05-05T02:57:30.018Z,2.84
2019-05-05T02:59:49.301Z,2.82
2019-05-05T03:02:04.315Z,2.80
2019-05-05T03:04:13.945Z,2.76
2019-05-05T03:06:17.362Z,2.74
2019-05-05T03:08:24.243Z,2.73
2019-05-05T03:10:30.610Z,2.72
2019-05-05T03:12:37.517Z,2.70
2019-05-05T03:14:44.509Z,2.69
2019-05-05T03:16:49.330Z,2.72
2019-05-05T03:18:54.506Z,2.73
2019-05-05T03:21:04.423Z,2.72
2019-05-05T03:23:04.248Z,2.73
2019-05-05T03:25:08.071Z,2.72
2019-05-05T03:27:11.900Z,2.71
2019-05-05T03:29:19.559Z,2.69
2019-05-05T03:31:26.109Z,2.65
2019-05-05T03:33:29.458Z,2.61
2019-05-05T03:35:34.552Z,2.55
2019-05-05T03:37:38.682Z,2.54
2019-05-05T03:39:46.400Z,2.56
2019-05-05T03:42:13.956Z,2.56
2019-05-05T03:44:37.039Z,2.55
2019-05-05T03:46:43.728Z,2.53
2019-05-05T03:48:47.227Z,2.50
2019-05-05T03:50:51.151Z,2.51
2019-05-05T03:52:55.439Z,2.51
2019-05-05T03:54:59.416Z,2.51
2019-05-05T03:57:09.704Z,2.50
2019-05-05T03:59:14.745Z,2.50
2019-05-05T04:01:34.873Z,2.52
2019-05-05T04:03:38.712Z,2.53
2019-05-05T04:05:47.085Z,2.48
2019-05-05T04:07:51.340Z,2.43
2019-05-05T04:09:55.203Z,2.36
2019-05-05T04:11:59.084Z,2.35
2019-05-05T04:14:03.708Z,2.37
2019-05-05T04:16:31.641Z,2.40
2019-05-05T04:18:40.577Z,2.39
2019-05-05T04:20:45.353Z,2.38
2019-05-05T04:22:51.122Z,2.38
2019-05-05T04:24:54.932Z,2.43
2019-05-05T04:26:58.743Z,2.46
2019-05-05T04:29:05.333Z,2.52
2019-05-05T04:31:07.949Z,2.58
2019-05-05T04:33:11.762Z,2.61
2019-05-05T04:35:15.668Z,2.61
2019-05-05T04:37:19.482Z,2.58
2019-05-05T04:39:23.716Z,2.58
2019-05-05T04:41:27.505Z,2.57
2019-05-05T04:43:31.302Z,2.53
2019-05-05T04:45:35.105Z,2.53
2019-05-05T04:47:43.499Z,2.55
2019-05-05T04:50:09.052Z,2.58
2019-05-05T04:52:14.375Z,2.63
2019-05-05T04:54:24.415Z,2.69
2019-05-05T04:56:29.990Z,2.73
2019-05-05T04:58:33.977Z,2.77
2019-05-05T05:00:38.057Z,2.82
2019-05-05T05:02:53.939Z,2.87
2019-05-05T05:05:04.019Z,2.89
2019-05-05T05:07:08.853Z,2.93
2019-05-05T05:09:14.502Z,2.97
2019-05-05T05:11:18.190Z,3.01
2019-05-05T05:13:23.896Z,3.06
2019-05-05T05:15:27.531Z,3.09
2019-05-05T05:17:41.759Z,3.12
2019-05-05T05:19:45.588Z,3.15
2019-05-05T05:21:59.424Z,3.21
2019-05-05T05:23:55.954Z,3.26
2019-05-05T05:25:59.774Z,3.30
2019-05-05T05:28:04.195Z,3.36
2019-05-05T05:30:09.330Z,3.41
2019-05-05T05:32:13.111Z,3.46
2019-05-05T05:34:16.904Z,3.50
2019-05-05T05:36:20.719Z,3.55
2019-05-05T05:38:24.650Z,3.59
2019-05-05T05:40:50.219Z,3.63
2019-05-05T05:42:54.327Z,3.67
2019-05-05T05:45:23.869Z,3.71
2019-05-05T05:47:53.637Z,3.75
2019-05-05T05:50:06.380Z,3.79
2019-05-05T05:52:15.853Z,3.79
2019-05-05T05:54:15.729Z,3.82
2019-05-05T05:56:19.541Z,3.84
2019-05-05T05:58:24.507Z,3.85
2019-05-05T06:00:29.514Z,3.89
2019-05-05T06:02:33.511Z,3.92
2019-05-05T06:04:37.294Z,3.98
2019-05-05T06:06:41.105Z,4.04
2019-05-05T06:08:44.992Z,4.11
2019-05-05T06:10:48.832Z,4.18
2019-05-05T06:12:54.691Z,4.27
2019-05-05T06:14:58.568Z,4.36
2019-05-05T06:17:04.301Z,4.47
2019-05-05T06:19:10.290Z,4.58
2019-05-05T06:21:13.875Z,4.71
2019-05-05T06:23:17.726Z,4.86
2019-05-05T06:25:21.478Z,4.98
2019-05-05T06:27:25.381Z,5.13
2019-05-05T06:29:29.167Z,5.28
2019-05-05T06:31:34.154Z,5.42
2019-05-05T06:33:38.111Z,5.57
2019-05-05T06:35:44.120Z,5.72
2019-05-05T06:37:54.311Z,5.81
2019-05-05T06:40:00.761Z,5.89
2019-05-05T06:42:23.695Z,5.93
2019-05-05T06:44:34.091Z,5.97
2019-05-05T06:46:56.046Z,6.02
2019-05-05T06:48:59.968Z,6.09
2019-05-05T06:51:04.190Z,6.07
2019-05-05T06:53:07.938Z,6.14
2019-05-05T06:55:13.968Z,6.22
2019-05-05T06:57:17.488Z,6.31
2019-05-05T06:59:24.173Z,6.43
2019-05-05T07:01:27.868Z,6.54
2019-05-05T07:03:33.660Z,6.67
2019-05-05T07:05:37.537Z,6.79
2019-05-05T07:07:43.435Z,6.95
2019-05-05T07:09:46.887Z,7.15
2019-05-05T07:11:50.680Z,7.25
2019-05-05T07:13:54.469Z,7.31
2019-05-05T07:15:58.197Z,7.34
2019-05-05T07:18:03.707Z,7.29
2019-05-05T07:20:07.720Z,7.21
2019-05-05T07:22:11.428Z,7.10
2019-05-05T07:24:15.309Z,6.99
2019-05-05T07:26:19.044Z,6.90
2019-05-05T07:28:23.506Z,6.82
2019-05-05T07:30:27.428Z,6.75
2019-05-05T07:32:31.235Z,6.68
2019-05-05T07:34:54.502Z,6.66
2019-05-05T07:36:58.128Z,6.64
2019-05-05T07:39:03.808Z,6.59
2019-05-05T07:41:07.474Z,6.61
2019-05-05T07:43:11.357Z,6.64
2019-05-05T07:45:22.142Z,6.67
2019-05-05T07:47:20.950Z,6.77
2019-05-05T07:49:24.798Z,6.94
2019-05-05T07:51:29.580Z,7.13
2019-05-05T07:53:33.608Z,7.29
2019-05-05T07:55:37.384Z,7.40
2019-05-05T07:57:43.414Z,7.41
2019-05-05T07:59:46.733Z,7.35
2019-05-05T08:01:50.584Z,7.38
2019-05-05T08:03:54.316Z,7.43
2019-05-05T08:05:58.128Z,7.48
2019-05-05T08:08:01.947Z,7.55
2019-05-05T08:10:05.918Z,7.63
2019-05-05T08:12:10.122Z,7.73
2019-05-05T08:14:14.550Z,7.79
2019-05-05T08:16:38.352Z,7.82
2019-05-05T08:18:57.626Z,7.80
2019-05-05T08:21:04.311Z,7.79
2019-05-05T08:23:28.002Z,7.84
2019-05-05T08:25:36.173Z,7.90
2019-05-05T08:27:39.567Z,7.93
2019-05-05T08:29:50.219Z,8.00
2019-05-05T08:31:58.762Z,8.10
2019-05-05T08:34:03.826Z,8.17
2019-05-05T08:36:07.662Z,8.23
2019-05-05T08:38:13.684Z,8.27
2019-05-05T08:40:17.151Z,8.30
2019-05-05T08:42:20.934Z,8.39
2019-05-05T08:44:24.728Z,8.48
2019-05-05T08:46:28.540Z,8.57
2019-05-05T08:48:34.161Z,8.67
2019-05-05T08:50:37.958Z,8.73
2019-05-05T08:52:41.706Z,8.76
2019-05-05T08:54:45.473Z,8.79
2019-05-05T08:56:49.367Z,8.82
2019-05-05T08:58:54.497Z,8.86
2019-05-05T09:00:58.315Z,8.90
2019-05-05T09:03:03.821Z,8.94
2019-05-05T09:05:08.202Z,8.98
2019-05-05T09:07:13.759Z,9.03
2019-05-05T09:09:18.632Z,9.09
2019-05-05T09:11:24.095Z,9.08
2019-05-05T09:13:27.824Z,9.02
2019-05-05T09:15:33.600Z,8.97
2019-05-05T09:17:37.105Z,8.97
2019-05-05T09:19:40.829Z,8.96
2019-05-05T09:21:44.861Z,8.95
2019-05-05T09:23:59.125Z,8.93
2019-05-05T09:26:14.398Z,8.93
2019-05-05T09:28:37.213Z,8.94
2019-05-05T09:30:44.449Z,8.90
2019-05-05T09:32:48.207Z,8.81
2019-05-05T09:34:53.924Z,8.76
2019-05-05T09:36:58.695Z,8.68
2019-05-05T09:39:04.349Z,8.62
2019-05-05T09:41:08.117Z,8.55
2019-05-05T09:43:12.012Z,8.49
2019-05-05T09:45:15.805Z,8.44
2019-05-05T09:47:19.601Z,8.37
2019-05-05T09:49:24.625Z,8.32
2019-05-05T09:51:28.552Z,8.28
2019-05-05T09:53:34.272Z,8.21
2019-05-05T09:55:37.798Z,8.14
2019-05-05T09:57:43.650Z,8.09
2019-05-05T09:59:47.163Z,8.05
2019-05-05T10:01:51.044Z,8.00
2019-05-05T10:03:57.481Z,7.95
2019-05-05T10:06:04.678Z,7.93
2019-05-05T10:08:07.699Z,7.95
2019-05-05T10:10:13.808Z,7.94
2019-05-05T10:12:17.336Z,7.96
2019-05-05T10:14:21.282Z,7.94
2019-05-05T10:16:25.045Z,7.93
2019-05-05T10:18:28.867Z,7.93
2019-05-05T10:20:34.381Z,7.93
2019-05-05T10:22:38.427Z,7.92
2019-05-05T10:24:48.718Z,7.89
2019-05-05T10:26:54.296Z,7.90
2019-05-05T10:29:01.103Z,7.91
2019-05-05T10:31:04.936Z,7.94
2019-05-05T10:33:08.688Z,7.99
2019-05-05T10:35:14.339Z,8.07
2019-05-05T10:37:18.148Z,8.16
2019-05-05T10:39:38.829Z,8.27
2019-05-05T10:41:44.159Z,8.39
2019-05-05T10:43:47.991Z,8.54
2019-05-05T10:45:51.701Z,8.67
2019-05-05T10:47:55.625Z,8.81
2019-05-05T10:49:59.388Z,8.90
2019-05-05T10:52:03.867Z,8.95
2019-05-05T10:54:07.887Z,8.94
2019-05-05T10:56:13.667Z,9.00
2019-05-05T10:58:19.873Z,9.13
2019-05-05T11:00:44.393Z,9.33
2019-05-05T11:02:48.579Z,9.59
2019-05-05T11:04:54.471Z,9.88
2019-05-05T11:06:57.943Z,10.13
2019-05-05T11:09:04.335Z,10.31
2019-05-05T11:11:08.029Z,10.46
2019-05-05T11:13:12.740Z,10.71
2019-05-05T11:15:16.688Z,10.90
2019-05-05T11:17:20.439Z,11.03
2019-05-05T11:19:24.192Z,11.21
2019-05-05T11:21:27.987Z,11.35
2019-05-05T11:23:34.346Z,11.51
2019-05-05T11:25:38.099Z,11.66
2019-05-05T11:27:43.861Z,11.79
2019-05-05T11:30:05.136Z,11.89
2019-05-05T11:32:15.439Z,11.96
2019-05-05T11:34:24.649Z,11.97
2019-05-05T11:36:37.081Z,11.96
2019-05-05T11:38:41.593Z,11.89
2019-05-05T11:40:45.478Z,11.88
2019-05-05T11:42:49.238Z,11.83
2019-05-05T11:44:53.044Z,11.81
2019-05-05T11:46:56.903Z,11.79
2019-05-05T11:49:00.632Z,11.75
2019-05-05T11:51:04.724Z,11.69
2019-05-05T11:53:08.498Z,11.58
2019-05-05T11:55:14.811Z,11.43
2019-05-05T11:57:17.918Z,11.29
2019-05-05T11:59:23.759Z,11.15
2019-05-05T12:01:27.663Z,11.00
2019-05-05T12:03:33.746Z,10.87
2019-05-05T12:05:36.979Z,10.75
2019-05-05T12:07:40.814Z,10.60
2019-05-05T12:09:54.995Z,10.53
2019-05-05T12:11:58.765Z,10.51
2019-05-05T12:14:03.918Z,10.40
2019-05-05T12:16:09.263Z,10.31
2019-05-05T12:18:14.355Z,10.26
2019-05-05T12:20:24.096Z,10.26
2019-05-05T12:22:27.762Z,10.26
2019-05-05T12:24:34.603Z,10.25
2019-05-05T12:27:00.332Z,10.26
2019-05-05T12:29:14.080Z,10.27
2019-05-05T12:31:21.182Z,10.33
2019-05-05T12:33:25.078Z,10.37
2019-05-05T12:35:28.810Z,10.35
2019-05-05T12:37:34.130Z,10.34
2019-05-05T12:39:37.939Z,10.31
2019-05-05T12:41:41.915Z,10.36
2019-05-05T12:43:45.737Z,10.41
2019-05-05T12:45:54.052Z,10.47
2019-05-05T12:48:17.731Z,10.53
2019-05-05T12:50:21.609Z,10.59
2019-05-05T12:52:25.361Z,10.70
2019-05-05T12:54:29.248Z,10.77
2019-05-05T12:56:34.029Z,10.83
2019-05-05T12:58:38.922Z,10.88
2019-05-05T13:00:46.015Z,10.94
2019-05-05T13:02:49.871Z,10.99
2019-05-05T13:04:53.657Z,11.07
2019-05-05T13:06:57.327Z,11.16
2019-05-05T13:09:02.123Z,11.31
2019-05-05T13:11:05.925Z,11.52
2019-05-05T13:13:09.880Z,11.77
2019-05-05T13:15:14.383Z,11.94
2019-05-05T13:17:18.155Z,12.02
2019-05-05T13:19:31.145Z,12.36
2019-05-05T13:21:54.916Z,12.88
2019-05-05T13:24:07.166Z,13.34
2019-05-05T13:26:23.575Z,13.77
2019-05-05T13:28:27.451Z,13.90
2019-05-05T13:30:31.319Z,13.85
2019-05-05T13:32:35.128Z,13.72
2019-05-05T13:34:38.874Z,13.52
2019-05-05T13:36:44.120Z,13.36
2019-05-05T13:38:48.009Z,13.20
2019-05-05T13:40:51.737Z,13.03
2019-05-05T13:42:55.536Z,12.84
2019-05-05T13:45:08.129Z,12.70
2019-05-05T13:47:11.913Z,12.58
2019-05-05T13:49:20.227Z,12.55
2019-05-05T13:51:24.156Z,12.46
2019-05-05T13:53:27.818Z,12.31
2019-05-05T13:55:31.636Z,12.21
2019-05-05T13:57:35.527Z,12.17
2019-05-05T13:59:39.485Z,12.14
2019-05-05T14:01:44.783Z,12.09
2019-05-05T14:03:48.791Z,12.08
2019-05-05T14:05:54.093Z,12.12
2019-05-05T14:07:57.813Z,12.16
2019-05-05T14:10:03.806Z,12.21
2019-05-05T14:12:07.167Z,12.27
2019-05-05T14:14:11.007Z,12.36
2019-05-05T14:16:14.788Z,12.44
2019-05-05T14:18:18.509Z,12.56
2019-05-05T14:20:23.995Z,12.68
2019-05-05T14:22:27.829Z,12.80
2019-05-05T14:24:39.491Z,12.89
2019-05-05T14:26:43.211Z,12.93
2019-05-05T14:28:47.047Z,12.97
2019-05-05T14:30:55.884Z,13.01
2019-05-05T14:33:00.899Z,13.06
2019-05-05T14:35:22.452Z,13.10
2019-05-05T14:37:53.379Z,13.12
2019-05-05T14:39:57.005Z,13.14
2019-05-05T14:42:00.739Z,13.08
2019-05-05T14:44:04.604Z,13.00
2019-05-05T14:46:08.492Z,12.94
2019-05-05T14:48:14.379Z,12.84
2019-05-05T14:50:18.649Z,12.72
2019-05-05T14:52:24.595Z,12.64
2019-05-05T14:54:27.975Z,12.58
2019-05-05T14:56:36.465Z,12.46
2019-05-05T14:58:37.307Z,12.35
2019-05-05T15:00:41.218Z,12.23
2019-05-05T15:02:45.016Z,12.16
2019-05-05T15:04:48.833Z,12.10
2019-05-05T15:07:10.754Z,12.05
2019-05-05T15:09:33.618Z,11.96
2019-05-05T15:11:47.682Z,11.88
2019-05-05T15:13:51.400Z,11.85
2019-05-05T15:15:55.129Z,11.88
2019-05-05T15:17:58.944Z,11.95
2019-05-05T15:20:02.814Z,12.01
2019-05-05T15:22:06.630Z,12.05
2019-05-05T15:24:10.525Z,12.10
2019-05-05T15:26:14.279Z,12.11
2019-05-05T15:28:18.090Z,12.08
2019-05-05T15:30:24.923Z,12.05
2019-05-05T15:32:27.395Z,12.02
2019-05-05T15:34:34.249Z,11.95
2019-05-05T15:36:37.844Z,11.89
2019-05-05T15:38:43.795Z,11.86
2019-05-05T15:40:48.662Z,11.86
2019-05-05T15:42:54.326Z,11.88
2019-05-05T15:44:58.080Z,11.88
2019-05-05T15:47:01.827Z,11.88
2019-05-05T15:49:06.643Z,11.88
2019-05-05T15:51:10.367Z,11.88
2019-05-05T15:53:14.444Z,11.85
2019-05-05T15:55:18.598Z,11.85
2019-05-05T15:57:24.107Z,11.82
2019-05-05T15:59:28.009Z,11.76
2019-05-05T16:01:31.805Z,11.74
2019-05-05T16:03:35.631Z,11.73
2019-05-05T16:05:39.498Z,11.71
2019-05-05T16:07:43.960Z,11.71
2019-05-05T16:09:47.957Z,11.70
2019-05-05T16:11:51.693Z,11.71
2019-05-05T16:13:55.422Z,11.73
2019-05-05T16:16:21.197Z,11.75
2019-05-05T16:18:32.694Z,11.78
2019-05-05T16:20:41.242Z,11.82
2019-05-05T16:22:51.564Z,11.84
2019-05-05T16:25:14.413Z,11.86
2019-05-05T16:27:21.986Z,11.86
2019-05-05T16:29:23.856Z,11.88
2019-05-05T16:31:27.834Z,11.90
2019-05-05T16:33:33.427Z,11.94
2019-05-05T16:35:37.194Z,11.95
2019-05-05T16:37:40.957Z,11.95
2019-05-05T16:39:44.796Z,11.95
2019-05-05T16:41:48.597Z,11.96
2019-05-05T16:43:53.449Z,11.91
2019-05-05T16:45:58.380Z,11.89
2019-05-05T16:48:03.918Z,11.88
2019-05-05T16:50:08.137Z,11.90
2019-05-05T16:52:18.473Z,11.94
2019-05-05T16:54:33.562Z,11.94
2019-05-05T16:56:37.122Z,11.88
2019-05-05T16:58:41.007Z,11.87
2019-05-05T17:00:44.803Z,11.88
2019-05-05T17:02:48.532Z,11.89
2019-05-05T17:04:53.891Z,11.90
2019-05-05T17:06:57.675Z,11.91
2019-05-05T17:09:01.483Z,11.91
2019-05-05T17:11:05.546Z,11.90
2019-05-05T17:13:37.409Z,11.88
2019-05-05T17:15:58.856Z,11.88
2019-05-05T17:18:32.512Z,11.86
2019-05-05T17:20:28.516Z,11.82
2019-05-05T17:22:51.291Z,11.79
2019-05-05T17:24:55.341Z,11.79
2019-05-05T17:26:59.223Z,11.75
2019-05-05T17:29:03.749Z,11.74
2019-05-05T17:31:07.562Z,11.74
2019-05-05T17:33:11.364Z,11.71
2019-05-05T17:35:15.325Z,11.69
2019-05-05T17:37:19.082Z,11.66
2019-05-05T17:39:24.294Z,11.66
2019-05-05T17:41:50.110Z,11.64
2019-05-05T17:44:03.347Z,11.61
2019-05-05T17:46:10.876Z,11.57
2019-05-05T17:48:36.703Z,11.54
2019-05-05T17:50:59.157Z,11.50
2019-05-05T17:53:09.379Z,11.44
2019-05-05T17:55:33.986Z,11.40
2019-05-05T17:57:37.746Z,11.37
2019-05-05T17:59:41.619Z,11.29
2019-05-05T18:01:45.348Z,11.30
2019-05-05T18:03:49.134Z,11.29
2019-05-05T18:06:14.236Z,11.25
2019-05-05T18:08:39.559Z,11.25
2019-05-05T18:10:46.804Z,11.24
2019-05-05T18:13:15.620Z,11.24
2019-05-05T18:15:36.931Z,11.21
2019-05-05T18:17:40.648Z,11.09
2019-05-05T18:19:44.364Z,11.00
2019-05-05T18:21:48.095Z,10.98
2019-05-05T18:23:51.872Z,10.97
2019-05-05T18:25:55.689Z,10.96
2019-05-05T18:28:12.803Z,10.90
2019-05-05T18:30:05.234Z,10.83
2019-05-05T18:32:09.028Z,10.78
2019-05-05T18:34:13.458Z,10.75
2019-05-05T18:36:17.387Z,10.68
2019-05-05T18:38:21.229Z,10.59
2019-05-05T18:40:25.122Z,10.55
2019-05-05T18:42:28.879Z,10.50
2019-05-05T18:44:36.350Z,10.43
2019-05-05T18:46:40.165Z,10.37
2019-05-05T18:48:43.946Z,10.30
2019-05-05T18:50:47.830Z,10.28
2019-05-05T18:52:53.653Z,10.24
2019-05-05T18:54:57.166Z,10.21
2019-05-05T18:57:02.181Z,10.16
2019-05-05T18:59:06.766Z,10.13
2019-05-05T19:01:28.303Z,10.12
2019-05-05T19:03:35.470Z,10.07
2019-05-05T19:06:07.422Z,9.96
2019-05-05T19:08:32.523Z,9.88
2019-05-05T19:10:36.316Z,9.78
2019-05-05T19:12:40.126Z,9.69
2019-05-05T19:14:44.301Z,9.61
2019-05-05T19:16:48.195Z,9.53
2019-05-05T19:18:53.975Z,9.42
2019-05-05T19:21:03.598Z,9.30
2019-05-05T19:23:07.443Z,9.22
2019-05-05T19:25:16.582Z,9.12
2019-05-05T19:27:20.444Z,9.03
2019-05-05T19:29:24.358Z,8.97
2019-05-05T19:31:28.181Z,8.88
2019-05-05T19:33:33.931Z,8.82
2019-05-05T19:35:43.967Z,8.77
2019-05-05T19:37:44.538Z,8.77
2019-05-05T19:39:48.420Z,8.69
2019-05-05T19:41:54.439Z,8.63
2019-05-05T19:43:57.767Z,8.58
2019-05-05T19:46:01.942Z,8.52
2019-05-05T19:48:06.099Z,8.45
2019-05-05T19:50:18.804Z,8.37
2019-05-05T19:52:24.032Z,8.29
2019-05-05T19:54:28.870Z,8.24
2019-05-05T19:56:33.860Z,8.20
2019-05-05T19:58:37.702Z,8.20
2019-05-05T20:00:41.514Z,8.19
2019-05-05T20:02:45.307Z,8.19
2019-05-05T20:04:49.036Z,8.20
2019-05-05T20:06:54.810Z,8.15
2019-05-05T20:08:58.761Z,8.16
2019-05-05T20:11:04.680Z,8.16
2019-05-05T20:13:07.984Z,8.13
2019-05-05T20:15:16.618Z,8.12
2019-05-05T20:17:25.980Z,8.07
2019-05-05T20:19:34.218Z,8.00
2019-05-05T20:21:37.952Z,7.93
2019-05-05T20:23:43.623Z,7.85
2019-05-05T20:25:47.520Z,7.75
2019-05-05T20:27:51.329Z,7.68
2019-05-05T20:29:55.141Z,7.60
2019-05-05T20:32:00.081Z,7.53
2019-05-05T20:34:13.493Z,7.47
2019-05-05T20:36:20.311Z,7.44
2019-05-05T20:38:29.697Z,7.44
2019-05-05T20:40:35.705Z,7.46
2019-05-05T20:42:39.501Z,7.44
2019-05-05T20:44:43.851Z,7.44
2019-05-05T20:46:50.724Z,7.40
2019-05-05T20:48:54.686Z,7.37
2019-05-05T20:50:58.347Z,7.32
2019-05-05T20:53:02.177Z,7.26
2019-05-05T20:55:06.048Z,7.22
2019-05-05T20:57:10.875Z,7.14
2019-05-05T20:59:27.513Z,7.06
2019-05-05T21:01:20.153Z,7.01
2019-05-05T21:03:23.924Z,7.01
2019-05-05T21:05:27.743Z,6.99
2019-05-05T21:07:31.517Z,6.94
2019-05-05T21:09:41.177Z,6.88
2019-05-05T21:11:44.982Z,6.86
2019-05-05T21:13:48.685Z,6.86
2019-05-05T21:15:53.868Z,6.83
2019-05-05T21:17:57.815Z,6.74
2019-05-05T21:20:04.193Z,6.70
2019-05-05T21:22:38.656Z,6.67
2019-05-05T21:24:44.384Z,6.66
2019-05-05T21:26:59.265Z,6.67
2019-05-05T21:29:04.589Z,6.69
2019-05-05T21:31:08.422Z,6.65
2019-05-05T21:33:12.142Z,6.65
2019-05-05T21:35:15.981Z,6.62
2019-05-05T21:37:19.765Z,6.64
2019-05-05T21:39:24.811Z,6.62
2019-05-05T21:41:28.814Z,6.56
2019-05-05T21:43:32.600Z,6.56
2019-05-05T21:45:36.402Z,6.54
2019-05-05T21:47:40.257Z,6.51
2019-05-05T21:49:43.977Z,6.43
2019-05-05T21:52:19.221Z,6.38
2019-05-05T21:54:44.725Z,6.36
2019-05-05T21:57:00.466Z,6.29
2019-05-05T21:59:04.353Z,6.21
2019-05-05T22:01:14.853Z,6.21
2019-05-05T22:03:26.970Z,6.17
2019-05-05T22:05:30.694Z,6.14
2019-05-05T22:07:34.516Z,6.15
2019-05-05T22:09:38.318Z,6.14
2019-05-05T22:11:44.279Z,6.08
2019-05-05T22:13:48.065Z,6.05
2019-05-05T22:15:51.944Z,6.05
2019-05-05T22:17:55.757Z,6.03
2019-05-05T22:20:06.767Z,6.00
2019-05-05T22:22:11.070Z,5.99
2019-05-05T22:24:16.283Z,5.95
2019-05-05T22:26:20.122Z,5.88
2019-05-05T22:28:24.317Z,5.83
2019-05-05T22:30:29.589Z,5.76
2019-05-05T22:32:34.346Z,5.74
2019-05-05T22:34:38.288Z,5.72
2019-05-05T22:36:42.179Z,5.68
2019-05-05T22:38:45.998Z,5.68
2019-05-05T22:40:49.796Z,5.67
2019-05-05T22:42:54.639Z,5.66
2019-05-05T22:44:58.515Z,5.70
2019-05-05T22:47:04.504Z,5.70
2019-05-05T22:49:08.086Z,5.63
2019-05-05T22:51:11.886Z,5.57
2019-05-05T22:53:16.254Z,5.55
2019-05-05T22:55:20.131Z,5.53
2019-05-05T22:57:24.716Z,5.49
2019-05-05T22:59:29.551Z,5.46
2019-05-05T23:01:33.422Z,5.48
2019-05-05T23:03:49.258Z,5.45
2019-05-05T23:05:56.824Z,5.44
2019-05-05T23:08:00.654Z,5.47
2019-05-05T23:10:04.790Z,5.52
2019-05-05T23:12:08.618Z,5.56
2019-05-05T23:14:29.894Z,5.56
2019-05-05T23:16:40.739Z,5.52
2019-05-05T23:18:45.631Z,5.47
2019-05-05T23:21:08.655Z,5.45
2019-05-05T23:23:40.457Z,5.43
2019-05-05T23:25:45.986Z,5.41
2019-05-05T23:27:50.520Z,5.30
2019-05-05T23:29:55.048Z,5.23
2019-05-05T23:31:58.754Z,5.17
2019-05-05T23:34:04.011Z,5.14
2019-05-05T23:36:07.874Z,5.09
2019-05-05T23:38:14.361Z,5.07
2019-05-05T23:40:24.507Z,5.05
2019-05-05T23:42:28.080Z,5.00
2019-05-05T23:44:31.822Z,5.00
2019-05-05T23:46:35.692Z,5.02
2019-05-05T23:48:39.422Z,5.01
2019-05-05T23:50:44.555Z,4.98
2019-05-05T23:52:54.763Z,4.93
2019-05-05T23:54:58.621Z,4.92
2019-05-05T23:57:04.777Z,4.85
2019-05-05T23:59:08.684Z,4.79
